Leeds Point, NJ

4:29 AM EDT on September 16, 2014 (GMT -0400)
Smithville | Change Station
CLOSE
Current Station
Personal Weather Station
Location: Galloway, NJ
Elevation: 20 ft
Nearby Weather Stations

Elev 20 ft 39.50 °N, 74.45 °W | Updated 1 minute ago

Partly Cloudy
Partly Cloudy
55.9 °F
Feels Like 55.9 °F
N
0.0
Wind Variable Wind from South

Today
High -- | Low -- °F
--% Chance of Precip.
Yesterday
High -- | Low -- °F
Precip. -- in
6:39 AM 7:04 PM
Waning Gibbous, 47% visible
Pressure 30.04 in
Visibility 10.0 miles
Clouds Few 4200 ft
Dew Point 54 °F
Humidity 93%
Rainfall 0.00 in
Snow Depth Not available.
UV 0 out of 12
Pollen 3.40 out of 12
Ozone Good
PM2.5 Moderate
Flu Activity Not available.
METAR KACY 160754Z 00000KT 10SM FEW042 13/12 A3004 RMK AO2 SLP171 T01330122

More Conditions Fewer Conditions

Pressure 30.04 in
Visibility 10.0 miles
Clouds Few 4200 ft
Dew Point 54 °F
Humidity 93%
Rainfall 0.00 in
Snow Depth Not available.
UV 0 out of 12
Pollen 3.40 out of 12
Ozone Good
PM2.5 Moderate
Flu Activity Not available.
METAR KACY 160754Z 00000KT 10SM FEW042 13/12 A3004 RMK AO2 SLP171 T01330122

More Conditions Fewer Conditions

10-Day Weather Forecast

Almanac

Astronomy

Sep. 16, 2014 Rise Set
Actual Time 6:39 AM EDT 7:04 PM EDT
Civil Twilight 6:12 AM EDT 7:31 PM EDT
Nautical Twilight 5:41 AM EDT 8:03 PM EDT
Astronomical Twilight 5:08 AM EDT 8:35 PM EDT
Moon No Moon Rise 2:25 PM EDT
Length of Visible Light 13h 18m
Length of Day
12h 24m
Tomorrow will be 2m 34s shorter.
Waning Gibbous, 47% of the Moon is Illuminated
Today
Waning Gibbous
Sep 24
New
Oct 1
First Quarter
Oct 8
Full
Oct 15
Last Quarter

Today's Extremes

State Highs State Lows

Community

WunderPhotos

Upload Photos

1,753,712 photos uploaded!

Nearby

Air Quality

  Air Quality AQ Index Pollutant
Yesterday Good
PM2.5
Yesterday Good
OZONE
Current Moderate
PM2.5
Current Good
OZONE
Tuesday Good
PM2.5
Tuesday Good
OZONE
Wednesday Good
PM2.5
Wednesday Good
OZONE
Thursday Good
PM2.5
Thursday Good
OZONE

Snow Depth

Station Depth Elevation
No new snow has been reported.

Earthquake Activity

City Distance Mag. Time & Date
No recent earthquake activity has been reported nearby.
Minimum magnitude displayed is 2.5.

Coastal Water Temperatures

Place Temperature
Atlantic City, NJ 72.0 °F

Nearby Weather Stations